Time;durP1;ratioP1;P1;durP2;ratioP2;P2;SDS_P1;SDS_P2;PMS_P1;PMS_P2;Temp;Humidity;BMP_temperature;BMP_pressure;BME280_temperature;BME280_humidity;BME280_pressure;Samples;Min_cycle;Max_cycle;Signal;HPM_P1;HPM_P2
2021/01/15 00:00:55;;;;;;;6.70;5.18;;;;;;;;;;5019526;28;20220;-92
2021/01/15 00:03:21;;;;;;;6.20;4.60;;;;;;;;;;5022902;28;20200;-92
2021/01/15 00:05:47;;;;;;;7.15;5.20;;;;;;;;;;5023559;28;20259;-92
2021/01/15 00:08:14;;;;;;;10.27;6.37;;;;;;;;;;5018995;28;20204;-92
2021/01/15 00:10:40;;;;;;;8.60;6.20;;;;;;;;;;5022705;28;20463;-92
2021/01/15 00:13:06;;;;;;;10.00;6.90;;;;;;;;;;5020516;28;20200;-91
2021/01/15 00:15:32;;;;;;;7.45;5.60;;;;;;;;;;5015853;28;20500;-92
2021/01/15 00:17:58;;;;;;;6.78;5.57;;;;;;;;;;4989832;28;20206;-92
2021/01/15 00:20:24;;;;;;;6.93;5.80;;;;;;;;;;4989369;28;20213;-91
2021/01/15 00:22:50;;;;;;;6.70;5.50;;;;;;;;;;4993245;28;20987;-91
2021/01/15 00:25:17;;;;;;;6.20;5.30;;;;;;;;;;4990150;28;20481;-92
2021/01/15 00:27:44;;;;;;;7.28;5.13;;;;;;;;;;4995057;28;20445;-92
2021/01/15 00:30:10;;;;;;;13.77;5.72;;;;;;;;;;4983556;28;20217;-92
2021/01/15 00:32:37;;;;;;;5.45;4.50;;;;;;;;;;4984417;28;20210;-91
2021/01/15 00:35:03;;;;;;;5.88;5.05;;;;;;;;;;4984581;28;20301;-92
2021/01/15 00:37:29;;;;;;;5.30;4.57;;;;;;;;;;4993989;28;20225;-91
2021/01/15 00:39:55;;;;;;;7.00;4.80;;;;;;;;;;4991259;28;20208;-91
2021/01/15 00:42:22;;;;;;;6.95;5.10;;;;;;;;;;4992740;28;20210;-92
2021/01/15 00:44:48;;;;;;;5.93;5.15;;;;;;;;;;4993862;28;20206;-93
2021/01/15 00:47:14;;;;;;;6.97;5.50;;;;;;;;;;4993273;28;20245;-91
2021/01/15 00:49:40;;;;;;;10.23;6.90;;;;;;;;;;4992624;28;20735;-92
2021/01/15 00:52:07;;;;;;;6.88;6.03;;;;;;;;;;4981937;28;20217;-92
2021/01/15 00:54:33;;;;;;;8.25;6.65;;;;;;;;;;4984420;28;20212;-92
2021/01/15 00:56:59;;;;;;;9.07;6.40;;;;;;;;;;4988223;28;20233;-92
2021/01/15 00:59:26;;;;;;;8.07;6.80;;;;;;;;;;4993406;28;20228;-92
2021/01/15 01:01:52;;;;;;;9.15;7.00;;;;;;;;;;4993308;28;20206;-92
2021/01/15 01:04:18;;;;;;;10.63;6.63;;;;;;;;;;4991021;28;20205;-92
2021/01/15 01:06:44;;;;;;;16.00;8.07;;;;;;;;;;4991594;28;20461;-92
2021/01/15 01:09:10;;;;;;;9.80;6.75;;;;;;;;;;4980885;28;20718;-92
2021/01/15 01:11:36;;;;;;;10.85;7.40;;;;;;;;;;4992523;28;20218;-92
2021/01/15 01:14:03;;;;;;;9.93;7.93;;;;;;;;;;4989109;28;20594;-91
2021/01/15 01:16:31;;;;;;;13.23;8.05;;;;;;;;;;5001071;28;20245;-91
2021/01/15 01:18:57;;;;;;;10.10;7.57;;;;;;;;;;4990259;28;20201;-91
2021/01/15 01:21:24;;;;;;;9.65;7.40;;;;;;;;;;4997292;28;20206;-91
2021/01/15 01:23:50;;;;;;;11.63;8.35;;;;;;;;;;4993810;28;20210;-92
2021/01/15 01:26:16;;;;;;;9.02;6.97;;;;;;;;;;4995615;28;20205;-92
2021/01/15 01:28:42;;;;;;;8.98;6.95;;;;;;;;;;4993944;28;20212;-92
2021/01/15 01:31:09;;;;;;;9.35;6.65;;;;;;;;;;4998274;28;20217;-91
2021/01/15 01:33:36;;;;;;;8.60;7.03;;;;;;;;;;5006678;28;20189;-91
2021/01/15 01:36:02;;;;;;;8.80;6.95;;;;;;;;;;4990435;28;20237;-91
2021/01/15 01:38:28;;;;;;;8.07;6.22;;;;;;;;;;4996072;28;20221;-91
2021/01/15 01:40:54;;;;;;;6.38;5.47;;;;;;;;;;4992378;28;20201;-91
2021/01/15 01:43:20;;;;;;;7.45;6.35;;;;;;;;;;4996128;28;20212;-91
2021/01/15 01:45:46;;;;;;;8.63;6.03;;;;;;;;;;4993462;28;20206;-91
2021/01/15 01:48:13;;;;;;;10.80;6.97;;;;;;;;;;4990997;28;20508;-91
2021/01/15 01:50:41;;;;;;;9.95;7.30;;;;;;;;;;4993367;28;20213;-91
2021/01/15 01:53:08;;;;;;;10.50;7.55;;;;;;;;;;4977635;28;20206;-91
2021/01/15 01:55:35;;;;;;;11.63;8.05;;;;;;;;;;4995273;28;20216;-91
2021/01/15 01:58:01;;;;;;;8.95;7.05;;;;;;;;;;4985277;28;20205;-93
2021/01/15 02:00:27;;;;;;;13.25;6.57;;;;;;;;;;4990977;28;20700;-91
2021/01/15 02:02:53;;;;;;;8.48;5.50;;;;;;;;;;4984796;28;20217;-91
2021/01/15 02:05:19;;;;;;;8.52;6.57;;;;;;;;;;4991806;28;20206;-92
2021/01/15 02:07:46;;;;;;;8.80;6.70;;;;;;;;;;4990243;28;20213;-91
2021/01/15 02:10:15;;;;;;;7.03;5.53;;;;;;;;;;4986719;28;20735;-91
2021/01/15 02:12:48;;;;;;;6.50;5.80;;;;;;;;;;4991595;28;20210;-91
2021/01/15 02:15:17;;;;;;;6.80;5.10;;;;;;;;;;4994560;28;20232;-91
2021/01/15 02:17:47;;;;;;;6.97;4.95;;;;;;;;;;5021036;28;20727;-90
2021/01/15 02:20:24;;;;;;;6.53;4.70;;;;;;;;;;5019156;28;20200;-90
2021/01/15 02:22:59;;;;;;;9.07;6.20;;;;;;;;;;5022213;28;20232;-91
2021/01/15 02:25:43;;;;;;;10.30;6.75;;;;;;;;;;5020116;28;20234;-90
2021/01/15 02:28:20;;;;;;;7.80;6.20;;;;;;;;;;5023551;28;20201;-91
2021/01/15 02:30:52;;;;;;;8.63;6.90;;;;;;;;;;5019208;28;20196;-91
2021/01/15 02:33:26;;;;;;;7.25;6.20;;;;;;;;;;5020832;28;20204;-91
2021/01/15 02:35:55;;;;;;;9.40;6.40;;;;;;;;;;5017589;28;20258;-90
2021/01/15 02:38:36;;;;;;;15.75;6.95;;;;;;;;;;5020567;28;20232;-91
2021/01/15 02:41:17;;;;;;;8.82;6.20;;;;;;;;;;5016873;28;20204;-91
2021/01/15 02:43:43;;;;;;;8.40;6.32;;;;;;;;;;5021191;28;20232;-90
2021/01/15 02:46:11;;;;;;;8.55;6.30;;;;;;;;;;5021155;28;20207;-91
2021/01/15 02:48:39;;;;;;;11.45;6.70;;;;;;;;;;5017732;28;20205;-91
2021/01/15 02:51:06;;;;;;;10.95;6.80;;;;;;;;;;5021673;28;20204;-92
2021/01/15 02:53:33;;;;;;;13.65;8.38;;;;;;;;;;5017364;28;21011;-92
2021/01/15 02:55:59;;;;;;;11.82;6.88;;;;;;;;;;5019618;28;20220;-91
2021/01/15 02:58:25;;;;;;;9.10;6.68;;;;;;;;;;5018789;28;20220;-91
2021/01/15 03:00:51;;;;;;;10.23;6.35;;;;;;;;;;5022272;28;20208;-91
2021/01/15 03:03:18;;;;;;;9.30;7.18;;;;;;;;;;5022458;28;20197;-90
2021/01/15 03:05:49;;;;;;;8.02;6.50;;;;;;;;;;5019475;28;20235;-90
2021/01/15 03:08:16;;;;;;;11.80;7.18;;;;;;;;;;5021845;28;20205;-91
2021/01/15 03:10:42;;;;;;;8.65;7.07;;;;;;;;;;5019215;28;20212;-91
2021/01/15 03:13:10;;;;;;;10.93;7.07;;;;;;;;;;5021083;28;20201;-90
2021/01/15 03:15:37;;;;;;;8.30;6.20;;;;;;;;;;5017997;28;20510;-91
2021/01/15 03:18:04;;;;;;;7.63;6.03;;;;;;;;;;5021397;28;20211;-90
2021/01/15 03:20:31;;;;;;;8.45;6.30;;;;;;;;;;5019151;28;20212;-91
2021/01/15 03:22:58;;;;;;;8.40;6.57;;;;;;;;;;5019046;28;20209;-91
2021/01/15 03:25:24;;;;;;;9.90;5.90;;;;;;;;;;5017407;28;20204;-90
2021/01/15 03:27:51;;;;;;;10.32;6.50;;;;;;;;;;5021100;28;20352;-91
2021/01/15 03:30:18;;;;;;;11.02;6.80;;;;;;;;;;5021370;28;20204;-92
2021/01/15 03:32:44;;;;;;;10.23;6.45;;;;;;;;;;5020723;28;20263;-90
2021/01/15 03:35:22;;;;;;;9.70;6.70;;;;;;;;;;5025240;28;20240;-90
2021/01/15 03:37:49;;;;;;;10.45;6.63;;;;;;;;;;5021830;28;20259;-91
2021/01/15 03:40:16;;;;;;;12.95;6.78;;;;;;;;;;5022872;28;20722;-91
2021/01/15 03:42:42;;;;;;;9.05;6.97;;;;;;;;;;5022500;28;20205;-91
2021/01/15 03:45:08;;;;;;;9.95;7.00;;;;;;;;;;5024984;28;20189;-90
2021/01/15 03:47:34;;;;;;;11.38;7.25;;;;;;;;;;5021562;28;20200;-90
2021/01/15 03:50:00;;;;;;;10.07;7.40;;;;;;;;;;5020614;28;20207;-90
2021/01/15 03:52:26;;;;;;;9.98;7.25;;;;;;;;;;5024599;28;20452;-90
2021/01/15 03:54:52;;;;;;;11.50;7.10;;;;;;;;;;5021584;28;20213;-90
2021/01/15 03:57:19;;;;;;;13.43;7.27;;;;;;;;;;5022525;28;20518;-91
2021/01/15 03:59:45;;;;;;;9.10;7.30;;;;;;;;;;5020535;28;20463;-91
2021/01/15 04:02:11;;;;;;;9.60;7.23;;;;;;;;;;5023783;28;20211;-90
2021/01/15 04:04:37;;;;;;;10.38;7.10;;;;;;;;;;5021899;28;20443;-93
2021/01/15 04:07:03;;;;;;;10.90;8.32;;;;;;;;;;5023887;28;20208;-90
2021/01/15 04:09:29;;;;;;;11.67;7.40;;;;;;;;;;5025081;28;20227;-90
2021/01/15 04:11:55;;;;;;;34.80;20.92;;;;;;;;;;5021123;28;20463;-91
2021/01/15 04:14:22;;;;;;;12.57;7.93;;;;;;;;;;5022286;28;20719;-91
2021/01/15 04:16:50;;;;;;;10.85;7.10;;;;;;;;;;5020032;28;20250;-93
2021/01/15 04:19:16;;;;;;;8.98;6.25;;;;;;;;;;5022223;28;20212;-92
2021/01/15 04:21:42;;;;;;;10.43;7.20;;;;;;;;;;5025744;28;20193;-91
2021/01/15 04:24:08;;;;;;;8.02;6.65;;;;;;;;;;5034360;28;20462;-92
2021/01/15 04:26:34;;;;;;;12.02;7.90;;;;;;;;;;5020969;28;20213;-90
2021/01/15 04:29:00;;;;;;;11.43;8.17;;;;;;;;;;5023329;28;20204;-91
2021/01/15 04:31:27;;;;;;;11.75;8.50;;;;;;;;;;5022369;28;20543;-91
2021/01/15 04:33:53;;;;;;;10.13;6.57;;;;;;;;;;5019927;28;20212;-92
2021/01/15 04:36:19;;;;;;;5.43;4.60;;;;;;;;;;5023051;28;20592;-92
2021/01/15 04:38:47;;;;;;;6.43;5.57;;;;;;;;;;5020301;28;20197;-91
2021/01/15 04:41:20;;;;;;;7.88;4.85;;;;;;;;;;5022675;28;20213;-93
2021/01/15 04:43:51;;;;;;;7.05;4.95;;;;;;;;;;5018485;28;20208;-92
2021/01/15 04:46:17;;;;;;;7.20;5.80;;;;;;;;;;5023296;28;20212;-90
2021/01/15 04:48:45;;;;;;;7.65;6.25;;;;;;;;;;5021235;28;20208;-91
2021/01/15 04:51:16;;;;;;;8.88;5.88;;;;;;;;;;5022246;28;20216;-91
2021/01/15 04:53:44;;;;;;;6.85;5.03;;;;;;;;;;5023248;28;20209;-92
2021/01/15 04:56:12;;;;;;;6.90;5.53;;;;;;;;;;5020350;28;20236;-90
2021/01/15 04:58:41;;;;;;;6.13;5.55;;;;;;;;;;5022865;28;20203;-90
2021/01/15 05:01:07;;;;;;;6.30;5.30;;;;;;;;;;5020458;28;20285;-92
2021/01/15 05:03:35;;;;;;;7.13;5.05;;;;;;;;;;5023277;28;20235;-90
2021/01/15 05:06:07;;;;;;;6.70;5.40;;;;;;;;;;5019202;28;20208;-90
2021/01/15 05:08:35;;;;;;;9.57;6.45;;;;;;;;;;5022474;28;20212;-91
2021/01/15 05:11:03;;;;;;;9.50;6.55;;;;;;;;;;5018845;28;20736;-91
2021/01/15 05:13:35;;;;;;;8.20;6.45;;;;;;;;;;5023021;28;20967;-90
2021/01/15 05:16:01;;;;;;;7.75;6.85;;;;;;;;;;5021776;28;20239;-91
2021/01/15 05:18:31;;;;;;;7.60;6.60;;;;;;;;;;5024407;28;20230;-92
2021/01/15 05:20:57;;;;;;;9.38;6.10;;;;;;;;;;5023310;28;20201;-91
2021/01/15 05:23:24;;;;;;;8.02;6.00;;;;;;;;;;5017948;28;20232;-91
2021/01/15 05:25:51;;;;;;;8.43;6.50;;;;;;;;;;5021206;28;20689;-92
2021/01/15 05:28:17;;;;;;;9.10;7.03;;;;;;;;;;5019202;28;20204;-91
2021/01/15 05:30:43;;;;;;;10.52;7.50;;;;;;;;;;5021058;28;20201;-90
2021/01/15 05:33:14;;;;;;;10.13;7.20;;;;;;;;;;5016839;28;20204;-91
2021/01/15 05:35:41;;;;;;;8.32;6.63;;;;;;;;;;5020258;28;20600;-91
2021/01/15 05:38:07;;;;;;;13.60;7.05;;;;;;;;;;5021363;28;20201;-91
2021/01/15 05:40:35;;;;;;;9.10;7.07;;;;;;;;;;5018905;28;20240;-92
2021/01/15 05:43:01;;;;;;;9.68;7.00;;;;;;;;;;5021992;28;21175;-91
2021/01/15 05:45:28;;;;;;;8.52;7.22;;;;;;;;;;5019095;28;20208;-91
2021/01/15 05:47:54;;;;;;;11.00;7.20;;;;;;;;;;5015813;28;20243;-91
2021/01/15 05:50:20;;;;;;;8.40;7.25;;;;;;;;;;5013213;28;20220;-91
2021/01/15 05:52:55;;;;;;;10.95;7.65;;;;;;;;;;5019202;28;20282;-91
2021/01/15 05:55:22;;;;;;;15.10;9.77;;;;;;;;;;5018332;28;20239;-92
2021/01/15 05:57:49;;;;;;;13.27;9.50;;;;;;;;;;5021884;28;20240;-92
2021/01/15 06:00:30;;;;;;;11.80;8.80;;;;;;;;;;5019247;28;20232;-92
2021/01/15 06:02:56;;;;;;;13.27;9.43;;;;;;;;;;5021498;28;20205;-90
2021/01/15 06:05:23;;;;;;;12.60;9.48;;;;;;;;;;5021852;28;20212;-92
2021/01/15 06:07:53;;;;;;;11.82;9.18;;;;;;;;;;5018965;28;20220;-92
2021/01/15 06:10:19;;;;;;;11.90;8.65;;;;;;;;;;5022282;28;20200;-91
2021/01/15 06:12:45;;;;;;;11.30;8.40;;;;;;;;;;5018730;28;20208;-92
2021/01/15 06:15:12;;;;;;;8.97;7.97;;;;;;;;;;5020153;28;20494;-92
2021/01/15 06:17:39;;;;;;;11.65;8.70;;;;;;;;;;5018284;28;20515;-92
2021/01/15 06:20:06;;;;;;;12.32;9.30;;;;;;;;;;5021130;28;20205;-92
2021/01/15 06:22:33;;;;;;;14.45;10.27;;;;;;;;;;5020237;28;20203;-91
2021/01/15 06:25:06;;;;;;;13.40;10.75;;;;;;;;;;5020705;28;20204;-92
2021/01/15 06:27:37;;;;;;;12.65;11.25;;;;;;;;;;5020796;28;20232;-92
2021/01/15 06:30:04;;;;;;;21.85;14.45;;;;;;;;;;5018591;28;20217;-91
2021/01/15 06:32:31;;;;;;;23.27;14.63;;;;;;;;;;5021754;28;20209;-92
2021/01/15 06:34:57;;;;;;;17.13;12.20;;;;;;;;;;5018971;28;20201;-92
2021/01/15 06:37:23;;;;;;;18.27;12.57;;;;;;;;;;5021963;28;20235;-92
2021/01/15 06:40:04;;;;;;;19.65;13.23;;;;;;;;;;5019520;28;20452;-92
2021/01/15 06:42:30;;;;;;;15.43;10.60;;;;;;;;;;5013464;28;20208;-92
2021/01/15 06:44:56;;;;;;;15.50;10.70;;;;;;;;;;5018819;28;20219;-93
2021/01/15 06:47:26;;;;;;;14.02;10.63;;;;;;;;;;5021240;28;20204;-93
2021/01/15 06:49:55;;;;;;;17.20;12.05;;;;;;;;;;5022168;28;20267;-93
2021/01/15 06:52:25;;;;;;;16.55;11.43;;;;;;;;;;5015235;28;20212;-93
2021/01/15 06:54:53;;;;;;;13.82;8.93;;;;;;;;;;5020002;28;20266;-93
2021/01/15 06:57:20;;;;;;;11.80;9.60;;;;;;;;;;5020024;28;20288;-93
2021/01/15 06:59:50;;;;;;;14.73;10.90;;;;;;;;;;5022200;28;20236;-95
2021/01/15 07:02:31;;;;;;;11.20;9.63;;;;;;;;;;5020967;28;20219;-93
2021/01/15 07:05:01;;;;;;;14.55;11.10;;;;;;;;;;5023106;28;20204;-93
2021/01/15 07:07:30;;;;;;;14.18;10.70;;;;;;;;;;5030431;28;20196;-95
2021/01/15 07:09:56;;;;;;;16.33;11.27;;;;;;;;;;5033396;28;20240;-95
2021/01/15 07:12:23;;;;;;;13.18;9.48;;;;;;;;;;5026858;28;20205;-93
2021/01/15 07:14:54;;;;;;;18.52;11.90;;;;;;;;;;5025022;28;20240;-94
2021/01/15 07:17:34;;;;;;;15.00;11.73;;;;;;;;;;5026322;28;20228;-93
2021/01/15 07:20:06;;;;;;;16.13;12.18;;;;;;;;;;5023054;28;20276;-94
2021/01/15 07:22:35;;;;;;;15.75;12.27;;;;;;;;;;5025322;28;20216;-94
2021/01/15 07:25:03;;;;;;;21.05;14.50;;;;;;;;;;5022578;28;20202;-94
2021/01/15 07:27:29;;;;;;;22.92;14.93;;;;;;;;;;5026466;28;20216;-94
2021/01/15 07:29:56;;;;;;;20.10;14.50;;;;;;;;;;5024552;28;20225;-95
2021/01/15 07:32:23;;;;;;;21.60;14.02;;;;;;;;;;5026881;28;20214;-96
2021/01/15 07:34:51;;;;;;;18.15;14.63;;;;;;;;;;5023952;28;20218;-96
2021/01/15 07:37:18;;;;;;;14.27;11.50;;;;;;;;;;5026059;28;20229;-95
2021/01/15 07:39:58;;;;;;;16.95;12.48;;;;;;;;;;5027291;28;20205;-96
2021/01/15 07:42:42;;;;;;;15.57;11.70;;;;;;;;;;5025315;28;20208;-96
2021/01/15 07:45:09;;;;;;;13.00;10.85;;;;;;;;;;5024330;28;20245;-95
2021/01/15 07:47:37;;;;;;;17.00;12.20;;;;;;;;;;5025373;28;20214;-94
2021/01/15 07:55:48;;;;;;;9.45;7.70;;;;;;;;;;5005613;28;20306;-96
2021/01/15 07:58:15;;;;;;;12.45;8.95;;;;;;;;;;5001080;28;20229;-96
2021/01/15 08:00:49;;;;;;;10.30;8.80;;;;;;;;;;4999086;28;20206;-95
2021/01/15 08:03:15;;;;;;;8.00;6.43;;;;;;;;;;5052702;23;20237;-94
2021/01/15 08:05:43;;;;;;;9.00;8.10;;;;;;;;;;5021367;28;20320;-94
2021/01/15 08:08:14;;;;;;;10.13;8.88;;;;;;;;;;5008672;28;20206;-94
2021/01/15 08:10:48;;;;;;;11.75;7.22;;;;;;;;;;5009416;28;20217;-96
2021/01/15 08:13:32;;;;;;;7.90;6.68;;;;;;;;;;5011983;28;20206;-96
2021/01/15 08:16:04;;;;;;;10.32;8.07;;;;;;;;;;5007735;28;20912;-96
2021/01/15 08:18:31;;;;;;;10.15;6.90;;;;;;;;;;5012649;28;20213;-95
2021/01/15 08:21:03;;;;;;;8.05;7.25;;;;;;;;;;5012981;28;20205;-96
2021/01/15 08:23:30;;;;;;;10.23;8.65;;;;;;;;;;5012313;28;20197;-96
2021/01/15 08:26:21;;;;;;;13.25;11.95;;;;;;;;;;5020926;28;20348;-96
2021/01/15 08:31:49;;;;;;;9.50;6.95;;;;;;;;;;5008569;28;20226;-96
2021/01/15 08:34:19;;;;;;;9.07;8.02;;;;;;;;;;5015142;28;20205;-95
2021/01/15 08:36:48;;;;;;;9.57;7.72;;;;;;;;;;5007165;28;20220;-95
2021/01/15 08:39:15;;;;;;;6.68;6.03;;;;;;;;;;5043347;23;20257;-96
2021/01/15 08:42:07;;;;;;;9.25;6.93;;;;;;;;;;5073337;28;20192;-96
2021/01/15 08:44:34;;;;;;;8.73;7.00;;;;;;;;;;5025716;23;20241;-94
2021/01/15 08:47:02;;;;;;;9.27;7.32;;;;;;;;;;5005180;28;20263;-95
2021/01/15 08:49:29;;;;;;;8.20;7.13;;;;;;;;;;5010952;28;20213;-95
2021/01/15 08:51:57;;;;;;;7.97;7.10;;;;;;;;;;5012551;28;20561;-94
2021/01/15 08:57:20;;;;;;;10.63;7.35;;;;;;;;;;5049634;23;20237;-93
2021/01/15 08:59:47;;;;;;;7.00;5.13;;;;;;;;;;5032120;28;20185;-92
2021/01/15 09:02:37;;;;;;;6.32;5.57;;;;;;;;;;5025994;28;20216;-96
2021/01/15 09:05:08;;;;;;;9.80;7.20;;;;;;;;;;5025774;28;20209;-94
2021/01/15 09:07:40;;;;;;;4.65;4.25;;;;;;;;;;5021279;28;20200;-92
2021/01/15 09:10:10;;;;;;;3.90;3.50;;;;;;;;;;5027435;28;20205;-94
2021/01/15 09:13:00;;;;;;;4.78;4.07;;;;;;;;;;5026534;28;20202;-96
2021/01/15 09:15:27;;;;;;;9.43;6.82;;;;;;;;;;5031037;28;20202;-92
2021/01/15 09:17:54;;;;;;;7.18;5.30;;;;;;;;;;5028080;28;20255;-94
2021/01/15 09:20:45;;;;;;;4.60;4.10;;;;;;;;;;5035716;28;20238;-96
2021/01/15 09:23:12;;;;;;;5.32;4.30;;;;;;;;;;5023977;28;20219;-94
2021/01/15 09:25:39;;;;;;;5.95;4.88;;;;;;;;;;5029341;28;20197;-91
2021/01/15 09:28:05;;;;;;;7.05;5.25;;;;;;;;;;5035699;28;20201;-94
2021/01/15 09:30:36;;;;;;;6.45;5.18;;;;;;;;;;5032068;28;20204;-95
2021/01/15 09:33:04;;;;;;;6.38;5.70;;;;;;;;;;5031001;28;20232;-94
2021/01/15 09:35:30;;;;;;;6.78;5.18;;;;;;;;;;5010307;28;20202;-94
2021/01/15 09:37:56;;;;;;;8.30;6.78;;;;;;;;;;5032367;28;20247;-94
2021/01/15 09:40:24;;;;;;;9.65;6.13;;;;;;;;;;5032428;28;20180;-93
2021/01/15 09:43:06;;;;;;;9.20;4.78;;;;;;;;;;5024043;28;20204;-96
2021/01/15 09:45:49;;;;;;;7.85;5.68;;;;;;;;;;5032308;28;20193;-94
2021/01/15 09:48:16;;;;;;;6.18;5.10;;;;;;;;;;5036183;28;20227;-96
2021/01/15 09:50:50;;;;;;;6.88;5.75;;;;;;;;;;5036133;23;20264;-96
2021/01/15 09:53:16;;;;;;;6.28;5.30;;;;;;;;;;5025590;28;20201;-94
2021/01/15 09:55:44;;;;;;;6.27;5.20;;;;;;;;;;5027914;28;20192;-96
2021/01/15 09:58:11;;;;;;;8.10;6.25;;;;;;;;;;5054390;23;21151;-96
2021/01/15 10:00:39;;;;;;;6.80;5.38;;;;;;;;;;5005066;28;20207;-95
2021/01/15 10:03:05;;;;;;;5.93;5.32;;;;;;;;;;4996639;28;20224;-96
2021/01/15 10:05:33;;;;;;;9.00;5.38;;;;;;;;;;5007090;28;20239;-94
2021/01/15 10:08:02;;;;;;;7.60;5.18;;;;;;;;;;5009543;28;20653;-96
2021/01/15 10:10:30;;;;;;;5.82;5.22;;;;;;;;;;5003012;28;20213;-95
2021/01/15 10:15:32;;;;;;;7.93;5.38;;;;;;;;;;4912759;26;20244;-96
2021/01/15 10:17:58;;;;;;;7.13;5.45;;;;;;;;;;5011231;28;20227;-96
2021/01/15 10:20:25;;;;;;;8.05;5.25;;;;;;;;;;5005991;28;20229;-92
2021/01/15 10:22:54;;;;;;;6.50;5.60;;;;;;;;;;5005496;28;20211;-96
2021/01/15 10:25:20;;;;;;;8.15;5.68;;;;;;;;;;5006227;28;20684;-89
2021/01/15 10:27:46;;;;;;;5.68;4.93;;;;;;;;;;5006485;28;20211;-94
2021/01/15 10:30:21;;;;;;;6.80;5.38;;;;;;;;;;5017189;28;20190;-96
2021/01/15 10:32:48;;;;;;;6.75;6.00;;;;;;;;;;5008236;28;20312;-95
2021/01/15 10:35:20;;;;;;;6.65;5.20;;;;;;;;;;5008609;28;20210;-96
2021/01/15 10:37:47;;;;;;;5.72;4.68;;;;;;;;;;5004678;28;20238;-96
2021/01/15 10:40:14;;;;;;;6.20;5.53;;;;;;;;;;5006642;28;20211;-93
2021/01/15 10:42:42;;;;;;;7.32;5.65;;;;;;;;;;5009878;28;20183;-94
2021/01/15 10:45:14;;;;;;;6.07;4.93;;;;;;;;;;5012715;28;20208;-96
2021/01/15 10:47:40;;;;;;;5.45;4.80;;;;;;;;;;5012710;28;20201;-96
2021/01/15 10:50:08;;;;;;;5.40;4.80;;;;;;;;;;5007116;28;20205;-96
2021/01/15 10:52:42;;;;;;;5.18;4.55;;;;;;;;;;5009299;28;20287;-93
2021/01/15 10:55:08;;;;;;;7.72;5.20;;;;;;;;;;5005033;28;20210;-94
2021/01/15 10:57:36;;;;;;;4.63;4.25;;;;;;;;;;5011165;28;20251;-96
2021/01/15 11:00:04;;;;;;;5.93;5.32;;;;;;;;;;5008625;28;20228;-96
2021/01/15 11:02:30;;;;;;;7.95;5.80;;;;;;;;;;5012223;28;20222;-96
2021/01/15 11:05:08;;;;;;;5.90;5.18;;;;;;;;;;5017998;23;20239;-96
2021/01/15 11:07:47;;;;;;;6.47;5.35;;;;;;;;;;5009629;28;20202;-96
2021/01/15 11:10:16;;;;;;;7.22;5.90;;;;;;;;;;5058432;23;20228;-96
2021/01/15 11:12:44;;;;;;;8.07;5.60;;;;;;;;;;5034072;28;20255;-95
2021/01/15 11:17:55;;;;;;;7.93;5.70;;;;;;;;;;5035202;28;20253;-96
2021/01/15 11:20:24;;;;;;;5.45;4.90;;;;;;;;;;5069479;23;20227;-96
2021/01/15 11:22:50;;;;;;;5.97;5.30;;;;;;;;;;5070263;28;20195;-94
2021/01/15 11:25:16;;;;;;;6.97;5.40;;;;;;;;;;5071338;28;20206;-95
2021/01/15 11:27:45;;;;;;;8.68;5.22;;;;;;;;;;5061915;28;20188;-94
2021/01/15 11:30:12;;;;;;;9.77;5.60;;;;;;;;;;5066068;28;20199;-96
2021/01/15 11:33:04;;;;;;;10.63;6.50;;;;;;;;;;5073394;28;20184;-96
2021/01/15 11:35:32;;;;;;;5.78;5.03;;;;;;;;;;5065235;28;20210;-96
2021/01/15 11:37:59;;;;;;;9.15;6.70;;;;;;;;;;5049979;28;20226;-96
2021/01/15 11:40:25;;;;;;;7.20;5.63;;;;;;;;;;5073419;28;20261;-96
2021/01/15 11:43:11;;;;;;;6.53;5.32;;;;;;;;;;5070094;28;20189;-96
2021/01/15 11:45:38;;;;;;;7.18;5.88;;;;;;;;;;5050670;28;20210;-94
2021/01/15 11:48:13;;;;;;;6.53;5.65;;;;;;;;;;5068269;28;20180;-96
2021/01/15 11:50:45;;;;;;;5.60;4.95;;;;;;;;;;5051271;23;20236;-96
2021/01/15 11:53:11;;;;;;;6.10;5.50;;;;;;;;;;5012258;28;20202;-95
2021/01/15 11:55:43;;;;;;;7.55;5.70;;;;;;;;;;5060171;23;20226;-96
2021/01/15 11:58:10;;;;;;;7.88;4.97;;;;;;;;;;5034723;23;20259;-96
2021/01/15 12:00:38;;;;;;;7.22;5.18;;;;;;;;;;5009711;28;20216;-96
2021/01/15 12:03:05;;;;;;;5.20;4.60;;;;;;;;;;5115833;23;20311;-96
2021/01/15 12:05:31;;;;;;;10.43;6.65;;;;;;;;;;5008678;28;20207;-96
2021/01/15 12:07:58;;;;;;;7.20;5.10;;;;;;;;;;5005995;28;20222;-96
2021/01/15 12:10:33;;;;;;;6.07;4.90;;;;;;;;;;5010014;28;20206;-96
2021/01/15 12:15:59;;;;;;;6.28;5.15;;;;;;;;;;5132109;23;20244;-96
2021/01/15 12:19:00;;;;;;;4.90;4.45;;;;;;;;;;5050085;23;20214;-96
2021/01/15 12:26:51;;;;;;;6.68;5.05;;;;;;;;;;5036091;28;20208;-96
2021/01/15 12:34:46;;;;;;;8.02;6.47;;;;;;;;;;5663573;23;20227;-96
2021/01/15 12:48:23;;;;;;;5.40;4.90;;;;;;;;;;5121115;23;20225;-94
2021/01/15 12:53:24;;;;;;;5.60;5.03;;;;;;;;;;5411868;23;20244;-93
2021/01/15 12:58:31;;;;;;;7.45;5.57;;;;;;;;;;5724443;22;20245;-96
2021/01/15 13:01:02;;;;;;;6.45;4.95;;;;;;;;;;5014301;28;20210;-96
2021/01/15 13:25:40;;;;;;;5.75;5.18;;;;;;;;;;5451649;23;20245;-96
2021/01/15 13:31:50;;;;;;;5.95;5.35;;;;;;;;;;5043709;28;20210;-96
2021/01/15 13:34:19;;;;;;;8.75;6.28;;;;;;;;;;5006889;23;20247;-94
2021/01/15 13:36:53;;;;;;;8.70;6.10;;;;;;;;;;4974661;28;20283;-95
2021/01/15 13:39:43;;;;;;;7.45;6.43;;;;;;;;;;5036541;23;20226;-97
2021/01/15 13:42:12;;;;;;;5.85;5.15;;;;;;;;;;5028218;23;20222;-96
2021/01/15 13:44:45;;;;;;;6.88;5.55;;;;;;;;;;4982454;28;20185;-96
2021/01/15 13:52:30;;;;;;;9.23;5.90;;;;;;;;;;5039251;23;20244;-96
2021/01/15 13:54:57;;;;;;;6.43;5.63;;;;;;;;;;5027434;28;20229;-96
2021/01/15 14:03:17;;;;;;;6.65;5.15;;;;;;;;;;5035379;28;20196;-95
2021/01/15 14:05:46;;;;;;;7.10;5.50;;;;;;;;;;5018609;28;20189;-96
2021/01/15 14:08:12;;;;;;;7.82;5.65;;;;;;;;;;5011223;28;20208;-96
2021/01/15 14:10:50;;;;;;;5.70;5.10;;;;;;;;;;5024454;28;20229;-96
2021/01/15 14:13:17;;;;;;;6.60;5.90;;;;;;;;;;5020488;28;20237;-96
2021/01/15 14:15:43;;;;;;;10.15;7.28;;;;;;;;;;5020165;23;20217;-96
2021/01/15 14:18:09;;;;;;;7.27;6.57;;;;;;;;;;5001905;28;20239;-96
2021/01/15 14:20:35;;;;;;;8.10;7.30;;;;;;;;;;5003342;28;20477;-95
2021/01/15 14:23:05;;;;;;;12.73;9.23;;;;;;;;;;5009362;28;20416;-96
2021/01/15 14:25:31;;;;;;;15.75;8.20;;;;;;;;;;5000453;28;20243;-95
2021/01/15 14:27:58;;;;;;;7.80;6.55;;;;;;;;;;5003108;28;20206;-96
2021/01/15 14:30:24;;;;;;;7.85;5.65;;;;;;;;;;5007219;28;20191;-95
2021/01/15 14:32:51;;;;;;;8.18;7.30;;;;;;;;;;5009591;28;20203;-95
2021/01/15 14:35:17;;;;;;;8.95;6.88;;;;;;;;;;5013461;28;20190;-96
2021/01/15 14:37:47;;;;;;;8.45;6.65;;;;;;;;;;5002118;28;20217;-96
2021/01/15 14:49:14;;;;;;;14.40;9.02;;;;;;;;;;5052644;23;20246;-96
2021/01/15 14:51:41;;;;;;;12.93;8.93;;;;;;;;;;5002523;28;20258;-95
2021/01/15 14:57:08;;;;;;;18.35;11.30;;;;;;;;;;4997424;28;20221;-96
2021/01/15 14:59:34;;;;;;;17.48;10.20;;;;;;;;;;4993473;28;20195;-95
2021/01/15 15:02:02;;;;;;;19.05;10.32;;;;;;;;;;5003994;28;20210;-95
2021/01/15 15:04:30;;;;;;;13.48;9.32;;;;;;;;;;4999356;28;20202;-95
2021/01/15 15:06:56;;;;;;;14.77;11.05;;;;;;;;;;4998985;28;20254;-94
2021/01/15 15:09:22;;;;;;;24.70;14.20;;;;;;;;;;4981493;28;21392;-95
2021/01/15 15:11:48;;;;;;;16.45;12.10;;;;;;;;;;4999095;28;20198;-96
2021/01/15 15:14:14;;;;;;;19.58;12.88;;;;;;;;;;4995646;28;20206;-95
2021/01/15 15:16:40;;;;;;;21.02;12.80;;;;;;;;;;4996687;28;20206;-93
2021/01/15 15:19:07;;;;;;;22.10;13.90;;;;;;;;;;4999463;28;20203;-93
2021/01/15 15:21:33;;;;;;;29.60;16.90;;;;;;;;;;4997586;28;20206;-94
2021/01/15 15:23:59;;;;;;;31.70;19.70;;;;;;;;;;5000948;28;20214;-95
2021/01/15 15:26:25;;;;;;;29.75;19.40;;;;;;;;;;4997438;28;20222;-96
2021/01/15 15:28:53;;;;;;;36.58;21.75;;;;;;;;;;5004322;28;20198;-94
2021/01/15 15:31:19;;;;;;;30.13;21.63;;;;;;;;;;5005858;28;20225;-94
2021/01/15 15:33:45;;;;;;;27.30;18.38;;;;;;;;;;5006706;28;20198;-95
2021/01/15 15:36:15;;;;;;;26.38;17.30;;;;;;;;;;5003755;28;20198;-94
2021/01/15 15:38:41;;;;;;;28.02;18.42;;;;;;;;;;5002529;28;20225;-93
2021/01/15 15:41:08;;;;;;;23.67;17.60;;;;;;;;;;5002881;28;20217;-95
2021/01/15 15:43:34;;;;;;;27.73;16.63;;;;;;;;;;5000812;28;20751;-93
2021/01/15 15:46:00;;;;;;;35.13;28.08;;;;;;;;;;5004308;28;20204;-96
2021/01/15 15:48:27;;;;;;;24.20;17.45;;;;;;;;;;5002143;28;20201;-94
2021/01/15 15:50:53;;;;;;;23.35;16.92;;;;;;;;;;5003173;28;20225;-94
2021/01/15 15:53:20;;;;;;;23.58;15.95;;;;;;;;;;5001207;28;20216;-95
2021/01/15 15:55:46;;;;;;;19.40;13.25;;;;;;;;;;5002617;28;20209;-96
2021/01/15 15:58:12;;;;;;;17.52;12.75;;;;;;;;;;5003093;28;20229;-94
2021/01/15 16:00:38;;;;;;;17.75;12.90;;;;;;;;;;5000885;28;20198;-93
2021/01/15 16:03:04;;;;;;;15.27;11.30;;;;;;;;;;5002896;28;20204;-93
2021/01/15 16:05:31;;;;;;;19.45;12.65;;;;;;;;;;5001129;28;21072;-94
2021/01/15 16:07:57;;;;;;;21.58;12.20;;;;;;;;;;5002808;28;20564;-94
2021/01/15 16:10:24;;;;;;;16.15;12.95;;;;;;;;;;5000750;28;21006;-94
2021/01/15 16:12:51;;;;;;;18.70;13.00;;;;;;;;;;5004516;28;20197;-93
2021/01/15 16:15:17;;;;;;;20.52;14.15;;;;;;;;;;5002271;28;20271;-93
2021/01/15 16:17:43;;;;;;;23.30;14.55;;;;;;;;;;5002543;28;20229;-94
2021/01/15 16:20:13;;;;;;;23.98;16.55;;;;;;;;;;5001837;28;20204;-93